Time;durP1;ratioP1;P1;durP2;ratioP2;P2;SDS_P1;SDS_P2;PMS_P1;PMS_P2;Temp;Humidity;BMP_temperature;BMP_pressure;BME280_temperature;BME280_humidity;BME280_pressure;Samples;Min_cycle;Max_cycle;Signal;HPM_P1;HPM_P2
2023/07/02 00:02:08;;;;;;;4.45;2.00;;;21.80;66.10;;;;;;10323476;28;20050;-61
2023/07/02 00:07:09;;;;;;;3.72;2.05;;;21.80;66.20;;;;;;10323090;28;20026;-61
2023/07/02 00:12:10;;;;;;;3.78;2.08;;;21.80;66.20;;;;;;10325492;28;20512;-60
2023/07/02 00:17:12;;;;;;;3.10;2.20;;;21.80;66.20;;;;;;10312127;28;20397;-60
2023/07/02 00:22:15;;;;;;;4.07;2.63;;;21.80;66.20;;;;;;10308182;28;20194;-60
2023/07/02 00:27:16;;;;;;;3.28;1.88;;;21.80;66.20;;;;;;10311903;28;20521;-60
2023/07/02 00:32:17;;;;;;;3.35;1.95;;;21.80;66.20;;;;;;10329400;28;20037;-60
2023/07/02 00:37:17;;;;;;;4.88;1.95;;;21.80;66.30;;;;;;10329150;28;20481;-60
2023/07/02 00:42:19;;;;;;;6.00;2.10;;;21.80;66.20;;;;;;10329055;28;20561;-60
2023/07/02 00:47:20;;;;;;;5.90;2.45;;;21.80;66.20;;;;;;10299976;28;20018;-59
2023/07/02 00:52:20;;;;;;;5.45;2.38;;;21.80;66.20;;;;;;10300570;28;20034;-59
2023/07/02 00:57:21;;;;;;;3.85;2.20;;;21.80;66.20;;;;;;10301964;28;20022;-60
2023/07/02 01:02:25;;;;;;;4.03;2.83;;;21.70;66.00;;;;;;10302893;28;20551;-60
2023/07/02 01:07:26;;;;;;;5.53;2.92;;;21.70;66.00;;;;;;10294969;28;20025;-60
2023/07/02 01:12:28;;;;;;;4.80;2.78;;;21.70;66.00;;;;;;10328134;28;20118;-60
2023/07/02 01:17:37;;;;;;;4.45;3.40;;;21.80;66.00;;;;;;10293957;28;20110;-60
2023/07/02 01:22:38;;;;;;;5.63;3.03;;;21.70;66.00;;;;;;10308859;28;20046;-60
2023/07/02 01:27:39;;;;;;;5.28;3.30;;;21.80;66.00;;;;;;10309257;28;20034;-60
2023/07/02 01:32:39;;;;;;;5.45;3.40;;;21.70;65.90;;;;;;10309300;28;20048;-60
2023/07/02 01:37:40;;;;;;;5.25;3.10;;;21.70;65.80;;;;;;10293682;28;20033;-60
2023/07/02 01:42:41;;;;;;;5.40;2.65;;;21.70;65.80;;;;;;10309093;28;20086;-59
2023/07/02 01:47:41;;;;;;;3.90;2.80;;;21.70;65.80;;;;;;10309617;28;20130;-60
2023/07/02 01:52:42;;;;;;;4.43;2.95;;;21.70;65.80;;;;;;10326408;28;20117;-59
2023/07/02 01:57:43;;;;;;;6.50;3.42;;;21.70;65.70;;;;;;10311176;28;20105;-59
2023/07/02 02:02:43;;;;;;;5.22;3.58;;;21.70;65.70;;;;;;10308423;28;20117;-60
2023/07/02 02:07:44;;;;;;;7.90;4.28;;;21.70;65.60;;;;;;10292429;28;20023;-59
2023/07/02 02:12:45;;;;;;;6.38;3.50;;;21.60;65.50;;;;;;10308218;28;20042;-59
2023/07/02 02:17:45;;;;;;;5.93;3.40;;;21.70;65.60;;;;;;10307978;28;20028;-60
2023/07/02 02:22:46;;;;;;;5.85;3.60;;;21.60;65.50;;;;;;10295062;28;20133;-60
2023/07/02 02:27:47;;;;;;;6.05;4.25;;;21.60;65.40;;;;;;10325047;28;20061;-60
2023/07/02 02:32:49;;;;;;;6.38;3.83;;;21.60;65.40;;;;;;10324915;28;20113;-60
2023/07/02 02:37:49;;;;;;;6.00;3.75;;;21.60;65.40;;;;;;10324051;28;20672;-60
2023/07/02 02:42:50;;;;;;;6.72;4.32;;;21.60;65.30;;;;;;10291054;28;20054;-60
2023/07/02 02:47:50;;;;;;;7.93;3.85;;;21.60;65.40;;;;;;10307080;28;20426;-59
2023/07/02 02:52:51;;;;;;;7.35;4.13;;;21.60;65.30;;;;;;10324286;28;20202;-59
2023/07/02 02:57:52;;;;;;;5.15;3.20;;;21.60;65.30;;;;;;10324116;28;20026;-60
2023/07/02 03:02:53;;;;;;;5.55;4.07;;;21.60;65.30;;;;;;10303211;28;20404;-60
2023/07/02 03:07:53;;;;;;;5.82;3.80;;;21.50;65.10;;;;;;10304074;28;20477;-59
2023/07/02 03:12:54;;;;;;;6.63;4.00;;;21.50;65.00;;;;;;10304747;28;20500;-59
2023/07/02 03:17:55;;;;;;;10.27;4.35;;;21.60;65.10;;;;;;10303461;28;20099;-60
2023/07/02 03:22:55;;;;;;;5.05;3.30;;;21.60;65.10;;;;;;10294706;28;20188;-60
2023/07/02 03:27:56;;;;;;;7.63;4.07;;;21.50;65.00;;;;;;10296052;28;20015;-60
2023/07/02 03:32:57;;;;;;;7.93;4.50;;;21.50;65.10;;;;;;10323592;28;20038;-59
2023/07/02 03:37:58;;;;;;;6.07;4.50;;;21.50;65.00;;;;;;10305930;28;20097;-60
2023/07/02 03:42:59;;;;;;;6.45;4.25;;;21.50;65.00;;;;;;10323468;28;20050;-59
2023/07/02 03:47:59;;;;;;;6.20;4.45;;;21.50;65.00;;;;;;10304570;28;20065;-60
2023/07/02 03:53:00;;;;;;;6.38;4.20;;;21.50;65.00;;;;;;10330961;28;20125;-60
2023/07/02 03:58:01;;;;;;;7.88;3.92;;;21.50;65.00;;;;;;10313334;28;20022;-59
2023/07/02 04:03:02;;;;;;;12.23;4.70;;;21.50;65.00;;;;;;10313594;28;20043;-60
2023/07/02 04:08:03;;;;;;;7.20;4.40;;;21.50;65.00;;;;;;10313204;28;20021;-60
2023/07/02 04:13:03;;;;;;;5.57;3.78;;;21.50;64.90;;;;;;10330323;28;20045;-59
2023/07/02 04:18:04;;;;;;;6.25;3.80;;;21.50;64.80;;;;;;10312566;28;20493;-59
2023/07/02 04:23:06;;;;;;;7.57;4.05;;;21.50;64.80;;;;;;10329781;28;20050;-60
2023/07/02 04:28:07;;;;;;;6.38;3.58;;;21.50;64.70;;;;;;10312055;28;20018;-59
2023/07/02 04:33:08;;;;;;;8.73;4.60;;;21.50;64.70;;;;;;10304310;28;20493;-59
2023/07/02 04:38:09;;;;;;;5.72;4.25;;;21.50;64.70;;;;;;10328130;28;20027;-60
2023/07/02 04:43:10;;;;;;;9.02;4.80;;;21.50;64.70;;;;;;10310982;28;20015;-59
2023/07/02 04:48:10;;;;;;;5.70;3.75;;;21.50;64.60;;;;;;10310406;28;20117;-60
2023/07/02 04:53:11;;;;;;;8.45;5.10;;;21.50;64.50;;;;;;10325574;28;20494;-60
2023/07/02 04:58:12;;;;;;;7.15;4.45;;;21.50;64.50;;;;;;10326162;28;20029;-59
2023/07/02 05:03:12;;;;;;;9.30;4.43;;;21.50;64.50;;;;;;10310666;28;20409;-60
2023/07/02 05:08:14;;;;;;;6.22;4.38;;;21.50;64.40;;;;;;10328094;28;20081;-59
2023/07/02 05:13:14;;;;;;;7.20;4.25;;;21.50;64.40;;;;;;10307465;28;20022;-59
2023/07/02 05:18:15;;;;;;;8.75;4.72;;;21.50;64.90;;;;;;10307942;28;20034;-59
2023/07/02 05:23:16;;;;;;;10.48;4.35;;;21.60;65.30;;;;;;10326277;28;20046;-60
2023/07/02 05:28:16;;;;;;;12.95;4.40;;;21.70;65.20;;;;;;10327041;28;20501;-58
2023/07/02 05:33:17;;;;;;;11.30;5.50;;;21.80;65.30;;;;;;10303211;28;20031;-59
2023/07/02 05:38:19;;;;;;;8.48;4.60;;;21.80;65.50;;;;;;10326759;28;20058;-59
2023/07/02 05:43:20;;;;;;;11.43;5.13;;;21.90;65.40;;;;;;10305137;28;20019;-59
2023/07/02 05:48:20;;;;;;;12.30;6.20;;;21.90;65.50;;;;;;10289033;28;20113;-58
2023/07/02 05:53:21;;;;;;;9.57;5.13;;;21.90;65.40;;;;;;10322345;28;20034;-59
2023/07/02 05:58:22;;;;;;;26.38;6.63;;;21.90;65.30;;;;;;10306508;28;20442;-58
2023/07/02 06:03:22;;;;;;;20.10;6.43;;;21.90;65.40;;;;;;10306206;28;20018;-57
2023/07/02 06:08:23;;;;;;;21.10;6.07;;;21.90;65.40;;;;;;10305790;28;20061;-57
2023/07/02 06:13:24;;;;;;;12.60;5.50;;;21.90;65.40;;;;;;10295252;28;20027;-55
2023/07/02 06:18:25;;;;;;;17.77;5.43;;;21.90;65.40;;;;;;10323490;28;20106;-55
2023/07/02 06:23:25;;;;;;;15.57;5.93;;;22.00;65.30;;;;;;10306114;28;20070;-54
2023/07/02 06:28:26;;;;;;;22.60;7.18;;;22.00;65.20;;;;;;10322858;28;20818;-57
2023/07/02 06:33:27;;;;;;;15.60;6.00;;;22.00;65.30;;;;;;10323633;28;20438;-56
2023/07/02 06:38:28;;;;;;;13.63;6.35;;;21.90;65.40;;;;;;10268123;28;20137;-56
2023/07/02 06:43:29;;;;;;;16.08;6.70;;;22.00;65.60;;;;;;10307380;28;20270;-57
2023/07/02 06:48:30;;;;;;;23.55;6.75;;;22.00;65.60;;;;;;10322099;28;20120;-56
2023/07/02 06:53:30;;;;;;;17.02;7.05;;;22.00;65.30;;;;;;10329202;28;20033;-57
2023/07/02 06:58:31;;;;;;;13.27;6.65;;;21.90;65.40;;;;;;10289852;28;20443;-57
2023/07/02 07:03:32;;;;;;;21.88;6.50;;;21.90;65.40;;;;;;10303705;28;20151;-56
2023/07/02 07:08:32;;;;;;;20.17;7.50;;;21.90;65.60;;;;;;10302983;28;20093;-56
2023/07/02 07:13:33;;;;;;;17.50;6.43;;;21.90;65.50;;;;;;10321000;28;20032;-56
2023/07/02 07:18:33;;;;;;;13.90;5.82;;;21.90;65.50;;;;;;10321534;28;20057;-55
2023/07/02 07:23:34;;;;;;;16.73;5.97;;;22.00;65.30;;;;;;10303747;28;20054;-56
2023/07/02 07:28:35;;;;;;;15.02;5.55;;;22.10;66.30;;;;;;10311787;28;20567;-57
2023/07/02 07:33:36;;;;;;;16.23;5.90;;;22.10;66.90;;;;;;10307426;28;20031;-55
2023/07/02 07:38:36;;;;;;;17.65;6.20;;;22.00;66.10;;;;;;10292429;28;20039;-58
2023/07/02 07:43:37;;;;;;;19.08;6.25;;;22.10;65.80;;;;;;10315964;28;20465;-59
2023/07/02 07:48:38;;;;;;;17.67;5.63;;;22.10;65.80;;;;;;10322642;28;20039;-58
2023/07/02 07:53:39;;;;;;;15.77;6.05;;;22.10;65.90;;;;;;10320364;28;20065;-56
2023/07/02 07:58:39;;;;;;;23.00;7.28;;;22.10;66.20;;;;;;10311762;28;20084;-55
2023/07/02 08:03:40;;;;;;;23.65;6.80;;;22.10;65.90;;;;;;10310974;28;20079;-58
2023/07/02 08:08:41;;;;;;;17.02;6.88;;;22.10;65.10;;;;;;10311312;28;20105;-56
2023/07/02 08:13:42;;;;;;;20.20;6.55;;;22.00;65.00;;;;;;10310634;28;20033;-58
2023/07/02 08:18:43;;;;;;;19.65;6.82;;;22.10;65.30;;;;;;10312575;28;20022;-58
2023/07/02 08:23:44;;;;;;;20.33;6.25;;;22.10;65.10;;;;;;10319447;28;20133;-58
2023/07/02 08:28:45;;;;;;;21.50;8.07;;;22.10;64.80;;;;;;10320575;28;20114;-58
2023/07/02 08:33:45;;;;;;;16.95;7.00;;;22.00;64.70;;;;;;10315009;28;20493;-58
2023/07/02 08:38:46;;;;;;;20.23;7.43;;;22.10;65.00;;;;;;10304666;28;20058;-60
2023/07/02 08:43:48;;;;;;;21.02;7.88;;;22.10;64.50;;;;;;10308064;28;20074;-57
2023/07/02 08:48:49;;;;;;;21.27;7.20;;;22.00;64.50;;;;;;10313687;28;20026;-58
2023/07/02 08:53:51;;;;;;;17.05;7.05;;;22.00;64.20;;;;;;10315470;28;20050;-60
2023/07/02 08:58:51;;;;;;;17.08;7.55;;;22.10;63.40;;;;;;10326997;28;20097;-58
2023/07/02 09:03:58;;;;;;;21.30;7.60;;;22.10;63.70;;;;;;10308654;28;20027;-58
2023/07/02 09:09:05;;;;;;;30.02;9.95;;;22.10;63.60;;;;;;10307325;28;20038;-56
2023/07/02 09:14:06;;;;;;;21.92;6.93;;;22.10;63.90;;;;;;10313512;28;20097;-56
2023/07/02 09:19:08;;;;;;;13.45;6.43;;;22.00;62.60;;;;;;10308752;28;20177;-58
2023/07/02 09:24:16;;;;;;;15.30;5.75;;;22.00;61.90;;;;;;10310983;28;20470;-59
2023/07/02 09:29:30;;;;;;;14.77;6.50;;;22.00;57.90;;;;;;10309295;28;20106;-60
2023/07/02 09:34:32;;;;;;;21.02;6.50;;;22.00;58.50;;;;;;10312933;28;20029;-60
2023/07/02 09:39:35;;;;;;;21.10;6.55;;;22.00;58.30;;;;;;10310223;28;20050;-61
2023/07/02 09:44:36;;;;;;;23.90;7.03;;;22.00;58.00;;;;;;10307671;28;20015;-61
2023/07/02 09:49:45;;;;;;;30.73;6.60;;;22.00;56.40;;;;;;10311708;28;20035;-60
2023/07/02 09:54:45;;;;;;;32.00;7.18;;;22.00;55.90;;;;;;10278914;28;20034;-60
2023/07/02 09:59:46;;;;;;;28.45;6.68;;;22.00;56.40;;;;;;10312885;28;20109;-60
2023/07/02 10:04:54;;;;;;;25.50;6.28;;;22.00;56.60;;;;;;10307580;28;20550;-61
2023/07/02 10:09:55;;;;;;;14.27;5.40;;;22.10;56.40;;;;;;10311259;28;20089;-60
2023/07/02 10:14:58;;;;;;;22.30;7.50;;;22.10;55.90;;;;;;10294758;28;20099;-54
2023/07/02 10:20:04;;;;;;;17.02;5.72;;;22.20;58.20;;;;;;10363063;28;20069;-54
2023/07/02 10:25:05;;;;;;;15.60;5.97;;;22.40;58.00;;;;;;10363770;28;20038;-53
2023/07/02 10:30:09;;;;;;;21.35;5.43;;;22.30;56.00;;;;;;10363867;28;20026;-52
2023/07/02 10:35:17;;;;;;;23.17;5.45;;;22.30;57.70;;;;;;10345707;28;20088;-53
2023/07/02 10:40:18;;;;;;;22.80;6.15;;;22.30;55.90;;;;;;10362455;28;20022;-52
2023/07/02 10:45:34;;;;;;;17.92;4.63;;;22.20;55.70;;;;;;10362943;28;20030;-54
2023/07/02 10:50:35;;;;;;;13.20;5.45;;;22.30;58.10;;;;;;10345984;28;20532;-55
2023/07/02 10:55:35;;;;;;;13.93;4.85;;;22.30;54.80;;;;;;10344783;28;20045;-55
2023/07/02 11:00:49;;;;;;;9.40;5.03;;;22.20;55.20;;;;;;10362898;28;20106;-54
2023/07/02 11:05:51;;;;;;;10.45;4.57;;;22.20;54.50;;;;;;10361462;28;20023;-54
2023/07/02 11:11:09;;;;;;;15.07;4.75;;;22.10;54.60;;;;;;10336197;28;20541;-53
2023/07/02 11:16:24;;;;;;;10.65;4.70;;;22.20;54.00;;;;;;10321982;28;20102;-51
2023/07/02 11:21:24;;;;;;;11.70;4.38;;;22.10;52.80;;;;;;10318730;28;20129;-58
2023/07/02 11:26:36;;;;;;;20.50;5.30;;;22.10;51.90;;;;;;10304185;28;20030;-58
2023/07/02 11:31:37;;;;;;;20.83;4.97;;;22.10;51.00;;;;;;10320775;28;20031;-52
2023/07/02 11:36:37;;;;;;;15.45;4.82;;;22.10;51.20;;;;;;10320737;28;20101;-57
2023/07/02 11:41:40;;;;;;;10.98;4.20;;;22.10;50.50;;;;;;10321326;28;20089;-56
2023/07/02 11:46:40;;;;;;;20.83;5.35;;;22.00;50.60;;;;;;10319862;28;20041;-57
2023/07/02 11:51:49;;;;;;;14.43;4.82;;;22.10;50.70;;;;;;10321313;28;20069;-56
2023/07/02 11:56:50;;;;;;;31.02;7.68;;;22.10;50.70;;;;;;10319957;28;20022;-56
2023/07/02 12:01:50;;;;;;;39.33;7.65;;;22.20;52.80;;;;;;10319702;28;20121;-57
2023/07/02 12:06:52;;;;;;;27.17;7.13;;;22.30;53.30;;;;;;10320067;28;20103;-56
2023/07/02 12:11:53;;;;;;;26.98;7.15;;;22.30;53.30;;;;;;10327346;28;20113;-56
2023/07/02 12:16:54;;;;;;;28.73;7.07;;;22.30;53.20;;;;;;10326746;28;20018;-56
2023/07/02 12:21:54;;;;;;;19.92;5.57;;;22.30;53.10;;;;;;10328346;28;20470;-57
2023/07/02 12:26:55;;;;;;;13.45;4.90;;;22.20;53.40;;;;;;10328542;28;20027;-57
2023/07/02 12:31:55;;;;;;;13.02;5.50;;;22.10;53.50;;;;;;10328328;28;20178;-56
2023/07/02 12:36:56;;;;;;;13.43;4.70;;;22.20;53.40;;;;;;10326694;28;20015;-56
2023/07/02 12:41:57;;;;;;;12.52;4.95;;;22.10;53.00;;;;;;10326272;28;20110;-57
2023/07/02 12:46:57;;;;;;;8.68;4.47;;;22.10;52.90;;;;;;10326062;28;20521;-57
2023/07/02 12:51:58;;;;;;;9.80;4.32;;;22.10;52.80;;;;;;10325787;28;20030;-56
2023/07/02 12:56:59;;;;;;;9.48;3.90;;;22.10;52.70;;;;;;10326668;28;20101;-57
2023/07/02 13:01:59;;;;;;;5.82;3.20;;;22.10;52.20;;;;;;10326590;28;20651;-57
2023/07/02 13:07:00;;;;;;;8.65;3.50;;;22.10;51.50;;;;;;10324955;28;20482;-56
2023/07/02 13:12:01;;;;;;;9.25;3.45;;;22.10;51.90;;;;;;10329351;28;20457;-56
2023/07/02 13:17:04;;;;;;;11.50;4.80;;;22.10;52.20;;;;;;10366775;28;20713;-55
2023/07/02 13:22:05;;;;;;;9.82;4.35;;;22.10;51.90;;;;;;10365661;28;20045;-56
2023/07/02 13:27:13;;;;;;;9.27;4.03;;;22.10;52.20;;;;;;10365200;28;20030;-56
2023/07/02 13:32:14;;;;;;;11.85;4.45;;;22.10;51.60;;;;;;10348819;28;20053;-56
2023/07/02 13:37:17;;;;;;;13.55;5.25;;;22.10;51.60;;;;;;10364969;28;20105;-56
2023/07/02 13:42:19;;;;;;;11.00;4.22;;;22.10;51.80;;;;;;10364173;28;20022;-57
2023/07/02 13:47:20;;;;;;;9.65;4.47;;;22.10;51.70;;;;;;10365700;28;20158;-55
2023/07/02 13:52:20;;;;;;;9.70;3.90;;;22.10;52.30;;;;;;10363610;28;20528;-56
2023/07/02 13:57:21;;;;;;;10.27;3.83;;;22.10;52.00;;;;;;10365262;28;20697;-54
2023/07/02 14:02:23;;;;;;;15.93;4.38;;;22.10;51.80;;;;;;10364826;28;20018;-56
2023/07/02 14:07:24;;;;;;;8.77;4.82;;;22.00;51.70;;;;;;10365230;28;20036;-57
2023/07/02 14:12:25;;;;;;;9.27;4.70;;;22.00;51.90;;;;;;10363102;28;20100;-57
2023/07/02 14:17:26;;;;;;;10.52;4.05;;;22.00;51.80;;;;;;10364506;28;20104;-58
2023/07/02 14:22:26;;;;;;;9.70;4.18;;;22.00;51.40;;;;;;10362893;28;20045;-58
2023/07/02 14:27:27;;;;;;;6.13;3.50;;;22.00;51.40;;;;;;10364363;28;20156;-58
2023/07/02 14:32:28;;;;;;;8.10;3.78;;;22.00;51.70;;;;;;10363923;28;20398;-59
2023/07/02 14:37:29;;;;;;;9.18;3.63;;;22.00;51.60;;;;;;10362575;28;20085;-58
2023/07/02 14:42:29;;;;;;;8.60;3.67;;;22.00;51.40;;;;;;10361979;28;20041;-57
2023/07/02 14:47:30;;;;;;;8.57;4.80;;;22.00;51.50;;;;;;10362200;28;20021;-56
2023/07/02 14:52:31;;;;;;;7.65;4.25;;;22.00;51.90;;;;;;10363065;28;20121;-57
2023/07/02 14:57:31;;;;;;;12.88;4.10;;;22.10;52.30;;;;;;10361746;28;20020;-60
2023/07/02 15:02:32;;;;;;;11.45;4.47;;;22.20;52.30;;;;;;10363356;28;20568;-59
2023/07/02 15:07:33;;;;;;;11.38;3.90;;;22.30;52.80;;;;;;10342716;28;20037;-58
2023/07/02 15:12:34;;;;;;;12.15;4.88;;;22.20;52.00;;;;;;10322332;28;20035;-60
2023/07/02 15:17:35;;;;;;;10.30;4.65;;;22.10;52.00;;;;;;10323299;28;20046;-59
2023/07/02 15:22:36;;;;;;;8.73;4.30;;;22.10;52.30;;;;;;10306994;28;20081;-59
2023/07/02 15:27:37;;;;;;;12.35;4.72;;;22.10;52.60;;;;;;10322660;28;20022;-58
2023/07/02 15:32:38;;;;;;;9.93;4.05;;;22.10;50.80;;;;;;10306762;28;20023;-59
2023/07/02 15:37:41;;;;;;;12.98;4.75;;;22.10;50.80;;;;;;10324094;28;20102;-59
2023/07/02 15:42:42;;;;;;;105.20;71.20;;;22.20;50.90;;;;;;10326191;28;20390;-59
2023/07/02 15:47:42;;;;;;;59.97;36.08;;;22.20;51.10;;;;;;10330622;28;20109;-59
2023/07/02 15:52:43;;;;;;;36.03;17.65;;;22.20;50.20;;;;;;10331801;28;20193;-60
2023/07/02 15:57:45;;;;;;;29.80;15.88;;;22.20;49.10;;;;;;10328838;28;20023;-57
2023/07/02 16:02:45;;;;;;;40.28;20.90;;;22.20;50.80;;;;;;10327948;28;20027;-59
2023/07/02 16:07:46;;;;;;;30.67;16.95;;;22.20;50.00;;;;;;10326917;28;20109;-58
2023/07/02 16:12:48;;;;;;;23.95;13.43;;;22.40;51.60;;;;;;10327560;28;20113;-58
2023/07/02 16:17:49;;;;;;;22.23;13.13;;;22.60;51.90;;;;;;10326771;28;20462;-57
2023/07/02 16:22:49;;;;;;;28.08;15.90;;;22.60;51.70;;;;;;10328288;28;20096;-57
2023/07/02 16:27:50;;;;;;;27.25;12.80;;;22.60;51.60;;;;;;10327879;28;20072;-59
2023/07/02 16:32:51;;;;;;;20.48;11.38;;;22.50;51.60;;;;;;10326719;28;20562;-59
2023/07/02 16:37:52;;;;;;;26.20;12.43;;;22.50;50.80;;;;;;10326408;28;20010;-59
2023/07/02 16:42:52;;;;;;;26.83;11.35;;;22.50;51.60;;;;;;10326371;28;20176;-57
2023/07/02 16:47:53;;;;;;;20.10;9.05;;;22.50;50.90;;;;;;10327685;28;20098;-58
2023/07/02 16:52:54;;;;;;;17.02;8.02;;;22.40;51.40;;;;;;10325946;28;20125;-56
2023/07/02 16:57:54;;;;;;;21.98;9.43;;;22.50;51.90;;;;;;10322619;28;20450;-60
2023/07/02 17:02:55;;;;;;;14.75;7.78;;;22.50;51.80;;;;;;10323786;28;20561;-60
2023/07/02 17:07:56;;;;;;;23.00;8.45;;;22.50;51.40;;;;;;10324618;28;20097;-57
2023/07/02 17:12:56;;;;;;;28.48;8.70;;;22.40;51.30;;;;;;10325935;28;20113;-58
2023/07/02 17:17:57;;;;;;;22.00;8.52;;;22.40;51.90;;;;;;10321551;28;20144;-57
2023/07/02 17:22:58;;;;;;;21.92;8.07;;;22.40;52.00;;;;;;10308320;28;20437;-57
2023/07/02 17:27:59;;;;;;;16.35;7.18;;;22.30;52.40;;;;;;10303790;28;20036;-56
2023/07/02 17:33:00;;;;;;;21.02;7.75;;;22.20;52.60;;;;;;10304054;28;20382;-57
2023/07/02 17:38:01;;;;;;;15.90;7.60;;;22.20;52.70;;;;;;10318123;28;20631;-56
2023/07/02 17:43:02;;;;;;;15.68;6.95;;;22.10;52.90;;;;;;10308946;28;20049;-57
2023/07/02 17:48:05;;;;;;;17.73;9.45;;;22.20;53.00;;;;;;10301801;28;20426;-57
2023/07/02 17:53:05;;;;;;;14.63;6.95;;;22.20;53.00;;;;;;10300805;28;20458;-57
2023/07/02 17:58:06;;;;;;;13.02;6.57;;;22.20;53.10;;;;;;10299525;28;20109;-58
2023/07/02 18:03:06;;;;;;;10.88;6.78;;;22.10;53.30;;;;;;10325398;28;20434;-57
2023/07/02 18:08:07;;;;;;;12.00;6.45;;;22.10;53.70;;;;;;10323248;28;20026;-61
2023/07/02 18:13:08;;;;;;;11.13;6.38;;;22.10;53.80;;;;;;10321980;28;20034;-60
2023/07/02 18:18:09;;;;;;;13.48;6.75;;;22.00;53.80;;;;;;10324152;28;20065;-60
2023/07/02 18:23:10;;;;;;;13.98;6.70;;;22.00;53.80;;;;;;10322022;28;20057;-61
2023/07/02 18:28:14;;;;;;;14.52;7.68;;;22.10;54.50;;;;;;10324436;28;20023;-61
2023/07/02 18:33:15;;;;;;;13.68;6.40;;;22.20;54.30;;;;;;10318904;28;20034;-57
2023/07/02 18:38:17;;;;;;;14.80;6.43;;;22.10;53.90;;;;;;10304152;28;20022;-57
2023/07/02 18:43:17;;;;;;;19.85;7.10;;;22.00;54.30;;;;;;10321334;28;20026;-57
2023/07/02 18:48:20;;;;;;;15.15;6.55;;;22.00;54.70;;;;;;10318666;28;20034;-57
2023/07/02 18:53:22;;;;;;;17.98;7.15;;;22.00;54.80;;;;;;10319078;28;20033;-56
2023/07/02 18:58:24;;;;;;;9.48;5.38;;;22.00;54.80;;;;;;10300361;28;20017;-57
2023/07/02 19:03:25;;;;;;;15.00;6.10;;;22.00;54.70;;;;;;10335987;28;20113;-57
2023/07/02 19:08:28;;;;;;;12.05;6.20;;;22.00;54.90;;;;;;10320501;28;20109;-57
2023/07/02 19:13:29;;;;;;;13.02;6.25;;;22.00;55.20;;;;;;10321600;28;20489;-57
2023/07/02 19:18:30;;;;;;;15.35;5.85;;;22.00;55.10;;;;;;10319665;28;20143;-57
2023/07/02 19:23:31;;;;;;;13.73;5.95;;;22.00;55.20;;;;;;10336023;28;20042;-57
2023/07/02 19:28:31;;;;;;;12.82;5.60;;;22.00;55.30;;;;;;10319748;28;20097;-57
2023/07/02 19:33:33;;;;;;;11.88;6.05;;;22.00;55.30;;;;;;10317596;28;20121;-57
2023/07/02 19:38:34;;;;;;;15.93;6.43;;;22.00;55.40;;;;;;10312533;28;20097;-57
2023/07/02 19:43:35;;;;;;;12.48;5.70;;;22.00;55.60;;;;;;10292524;28;20022;-57
2023/07/02 19:48:36;;;;;;;8.30;5.03;;;22.00;55.70;;;;;;10310611;28;20026;-58
2023/07/02 19:53:37;;;;;;;11.23;6.68;;;22.00;55.80;;;;;;10319450;28;20030;-57
2023/07/02 19:58:39;;;;;;;9.98;5.20;;;22.00;55.90;;;;;;10338390;28;20468;-54
2023/07/02 20:03:40;;;;;;;11.70;4.85;;;22.00;55.90;;;;;;10303496;28;20121;-57
2023/07/02 20:08:41;;;;;;;8.93;6.13;;;21.90;56.00;;;;;;10292437;28;20031;-57
2023/07/02 20:13:41;;;;;;;10.85;5.78;;;21.90;56.00;;;;;;10306516;28;20528;-57
2023/07/02 20:18:42;;;;;;;8.18;5.47;;;21.90;56.20;;;;;;10321570;28;20018;-57
2023/07/02 20:23:42;;;;;;;9.07;5.07;;;21.90;56.50;;;;;;10309761;28;20129;-57
2023/07/02 20:28:43;;;;;;;9.75;5.47;;;21.90;56.60;;;;;;10284713;28;20103;-57
2023/07/02 20:33:44;;;;;;;11.68;6.03;;;21.90;56.60;;;;;;10299068;28;20121;-57
2023/07/02 20:38:45;;;;;;;9.30;4.78;;;21.90;56.70;;;;;;10329989;28;20050;-57
2023/07/02 20:43:47;;;;;;;7.03;4.25;;;21.90;56.70;;;;;;10337036;28;20057;-57
2023/07/02 20:48:47;;;;;;;8.45;5.32;;;21.80;56.60;;;;;;10329468;28;20018;-57
2023/07/02 20:53:48;;;;;;;8.10;4.15;;;21.80;56.80;;;;;;10329130;28;20137;-57
2023/07/02 20:58:50;;;;;;;8.60;4.55;;;21.80;56.70;;;;;;10298064;28;20134;-57
2023/07/02 21:03:51;;;;;;;9.35;5.25;;;21.80;56.70;;;;;;10307266;28;20023;-57
2023/07/02 21:08:51;;;;;;;9.60;4.57;;;21.80;56.60;;;;;;10288528;28;20027;-57
2023/07/02 21:13:52;;;;;;;8.07;4.93;;;21.80;56.70;;;;;;10287308;28;20034;-57
2023/07/02 21:18:53;;;;;;;5.75;4.28;;;21.80;56.60;;;;;;10317465;28;20077;-57
2023/07/02 21:23:54;;;;;;;7.45;4.45;;;21.80;56.60;;;;;;10343154;28;20108;-57
2023/07/02 21:28:55;;;;;;;6.85;4.03;;;21.80;56.60;;;;;;10306570;28;20038;-57
2023/07/02 21:33:55;;;;;;;6.57;4.18;;;21.80;56.90;;;;;;10323431;28;20066;-58
2023/07/02 21:38:56;;;;;;;5.60;4.13;;;21.80;57.00;;;;;;10315032;28;20019;-57
2023/07/02 21:43:57;;;;;;;7.00;3.80;;;21.70;56.70;;;;;;10342045;28;20033;-57
2023/07/02 21:48:57;;;;;;;5.78;3.63;;;21.80;56.80;;;;;;10327188;28;20105;-57
2023/07/02 21:53:58;;;;;;;7.40;4.05;;;21.70;56.80;;;;;;10339017;28;20031;-57
2023/07/02 21:58:59;;;;;;;10.30;4.13;;;21.80;56.90;;;;;;10286694;28;20051;-57
2023/07/02 22:03:59;;;;;;;8.68;4.32;;;21.70;56.70;;;;;;10310063;28;20019;-57
2023/07/02 22:09:03;;;;;;;7.47;3.95;;;21.70;56.90;;;;;;10341490;28;20022;-59
2023/07/02 22:14:04;;;;;;;8.60;5.28;;;21.70;56.80;;;;;;10340787;28;20053;-57
2023/07/02 22:19:04;;;;;;;5.82;4.15;;;21.70;57.00;;;;;;10340845;28;20716;-57
2023/07/02 22:24:05;;;;;;;7.10;4.15;;;21.70;56.90;;;;;;10325734;28;20129;-57
2023/07/02 22:29:06;;;;;;;7.60;4.25;;;21.70;57.00;;;;;;10301006;28;20331;-57
2023/07/02 22:34:07;;;;;;;6.40;4.10;;;21.70;57.00;;;;;;10298985;28;20042;-57
2023/07/02 22:39:08;;;;;;;6.10;3.55;;;21.70;57.20;;;;;;10340315;28;20010;-57
2023/07/02 22:44:08;;;;;;;6.93;3.70;;;21.70;57.10;;;;;;10306662;28;20113;-57
2023/07/02 22:49:09;;;;;;;6.57;3.63;;;21.70;57.20;;;;;;10294769;28;20026;-57
2023/07/02 22:54:10;;;;;;;7.25;3.83;;;21.70;57.30;;;;;;10309261;28;20121;-59
2023/07/02 22:59:10;;;;;;;7.50;3.78;;;21.70;57.40;;;;;;10324521;28;20475;-57
2023/07/02 23:04:11;;;;;;;6.15;3.55;;;21.60;57.20;;;;;;10324685;28;20626;-58
2023/07/02 23:09:12;;;;;;;7.10;3.78;;;21.60;57.20;;;;;;10339960;28;20063;-57
2023/07/02 23:14:13;;;;;;;8.00;4.47;;;21.60;57.40;;;;;;10322570;28;20121;-57
2023/07/02 23:19:13;;;;;;;10.27;5.18;;;21.70;57.50;;;;;;10327517;28;20469;-57
2023/07/02 23:24:19;;;;;;;8.68;3.60;;;21.60;57.40;;;;;;10282472;28;20625;-56
2023/07/02 23:29:20;;;;;;;6.00;3.80;;;21.60;57.50;;;;;;10296789;28;20031;-57
2023/07/02 23:34:21;;;;;;;7.68;3.95;;;21.60;57.60;;;;;;10302978;28;20054;-57
2023/07/02 23:39:22;;;;;;;6.38;3.55;;;21.60;57.60;;;;;;10338850;28;20049;-57
2023/07/02 23:44:23;;;;;;;7.63;3.92;;;21.60;57.60;;;;;;10323761;28;20026;-57
2023/07/02 23:49:23;;;;;;;8.98;4.43;;;21.60;57.50;;;;;;10318063;28;20117;-58
2023/07/02 23:54:24;;;;;;;9.80;5.00;;;21.60;57.60;;;;;;10311044;28;20512;-57
2023/07/02 23:59:25;;;;;;;6.63;3.45;;;21.60;57.60;;;;;;10323524;28;20110;-56
